Impacts TAF Board INFO
FOR SITUATIONAL AWARENESS. NOT TO BE USED FOR FLIGHT PLANNING PURPOSES.
IDs:

KGEG - Spokane Intl, WA, US

Issued at 1726 UTC 22 Jun 2018
Updated at 2253 UTC 22 Jun 2018
Potential Impact None Slight Moderate High
Time2153Z 22/23Z 23/00Z 23/01Z 23/02Z 23/03Z 23/04Z 23/05Z 23/06Z 23/07Z 23/08Z 23/09Z 23/10Z 23/11Z>>
Type OBS PRVL PRVL PRVL PRVL PRVL PRVL PRVL PRVL PRVL PRVL PRVL PRVL PRVL
VIS 10 >6 >6 >6 >6 >6 >6 >6 >6 >6 >6 >6 >6 >6
CIG 200 -- -- 70 70 70 -- -- -- -- -- -- -- --
Cover BKN SCT SCT BKN BKN BKN SCT SCT SCT SCT SCT SCT SCT SCT
FltCat VFR VFR VFR VFR VFR VFR VFR VFR VFR VFR VFR VFR VFR VFR
WX -- -- -- VCTS VCTS VCTS -- -- -- -- -- -- -- --
WDir 220 200 200 230 230 230 170 170 170 170 170 170 170 170
WSpd 16 15 15 11 11 11 5 5 5 5 5 5 5 5
WGst 19 25 25 -- -- -- -- -- -- -- -- -- -- --

Raw TAF
KGEG 221726Z 2218/2318 20012KT P6SM FEW040 SCT200
  FM222000 20015G25KT P6SM SCT050 SCT120
  FM230100 23011KT P6SM VCTS BKN070CB BKN120
  FM230400 17005KT P6SM SCT100
  FM231500 20009KT P6SM BKN100


Raw METAR
KGEG 222153Z 22016G19KT 10SM SCT040CB SCT060 SCT100 BKN200 26/09 A2993 RMK AO2 LTG DSNT NE SLP122 CB DSNT NE T02560094
KGEG 222053Z 21016KT 10SM SCT040TCU SCT055 BKN100 BKN200 25/10 A2996 RMK AO2 SLP130 TCU NW-NE T02500100 58017
KGEG 221953Z 23010G22KT 10SM BKN040TCU BKN060 BKN100 BKN200 23/12 A2998 RMK AO2 SLP140 TCU ALQDS T02330117

METAR Board
Radar Display
Forecast Discussion

FOR SITUATIONAL AWARENESS. NOT TO BE USED FOR FLIGHT PLANNING PURPOSES.